createdAt,value
2023-02-17T00:02:35.035Z,5.63
2023-02-17T00:05:39.377Z,5.68
2023-02-17T00:08:40.979Z,6.38
2023-02-17T00:11:42.456Z,5.45
2023-02-17T00:14:43.900Z,5.75
2023-02-17T00:17:45.359Z,5.57
2023-02-17T00:20:46.793Z,5.72
2023-02-17T00:23:49.638Z,6.05
2023-02-17T00:26:51.269Z,5.80
2023-02-17T00:29:52.770Z,6.30
2023-02-17T00:32:54.244Z,6.68
2023-02-17T00:35:55.701Z,5.40
2023-02-17T00:38:57.915Z,5.95
2023-02-17T00:41:59.493Z,5.55
2023-02-17T00:45:04.484Z,5.45
2023-02-17T00:48:06.889Z,5.60
2023-02-17T00:51:08.990Z,5.18
2023-02-17T00:54:10.588Z,5.72
2023-02-17T00:57:12.126Z,5.40
2023-02-17T01:00:14.232Z,5.05
2023-02-17T01:03:15.913Z,4.97
2023-02-17T01:06:23.460Z,5.38
2023-02-17T01:09:24.954Z,4.78
2023-02-17T01:12:26.447Z,4.32
2023-02-17T01:15:27.897Z,4.30
2023-02-17T01:18:29.410Z,4.20
2023-02-17T01:21:32.198Z,4.20
2023-02-17T01:24:33.868Z,4.07
2023-02-17T01:27:37.356Z,4.10
2023-02-17T01:30:38.868Z,4.80
2023-02-17T01:33:40.854Z,4.13
2023-02-17T01:36:43.590Z,4.90
2023-02-17T01:39:45.262Z,4.35
2023-02-17T01:42:46.762Z,4.30
2023-02-17T01:45:53.414Z,4.28
2023-02-17T01:48:54.890Z,5.00
2023-02-17T01:52:13.015Z,4.67
2023-02-17T01:55:18.345Z,5.72
2023-02-17T01:58:21.969Z,5.47
2023-02-17T02:01:23.777Z,5.55
2023-02-17T02:04:29.865Z,5.00
2023-02-17T02:07:36.525Z,5.85
2023-02-17T02:10:38.529Z,5.18
2023-02-17T02:13:40.463Z,5.50
2023-02-17T02:16:57.525Z,5.75
2023-02-17T02:20:28.122Z,6.03
2023-02-17T02:24:07.577Z,5.65
2023-02-17T02:27:34.855Z,5.20
2023-02-17T02:30:51.457Z,4.93
2023-02-17T02:33:55.830Z,5.43
2023-02-17T02:37:08.849Z,5.63
2023-02-17T02:40:12.538Z,4.88
2023-02-17T02:43:14.702Z,5.28
2023-02-17T02:46:16.593Z,4.88
2023-02-17T02:49:18.096Z,4.65
2023-02-17T02:52:33.346Z,5.15
2023-02-17T02:56:23.248Z,5.00
2023-02-17T02:59:37.347Z,5.55
2023-02-17T03:02:52.269Z,4.93
2023-02-17T03:06:12.793Z,5.53
2023-02-17T03:09:23.077Z,5.00
2023-02-17T03:12:26.159Z,5.00
2023-02-17T03:15:33.778Z,4.28
2023-02-17T03:18:36.358Z,4.35
2023-02-17T03:21:42.248Z,4.03
2023-02-17T03:24:43.777Z,4.40
2023-02-17T03:27:45.278Z,4.43
2023-02-17T03:30:48.673Z,4.17
2023-02-17T03:33:50.339Z,4.03
2023-02-17T03:36:51.834Z,4.55
2023-02-17T03:39:53.291Z,3.90
2023-02-17T03:42:57.121Z,2.92
2023-02-17T03:45:58.670Z,3.20
2023-02-17T03:49:00.227Z,3.22
2023-02-17T03:52:01.740Z,3.92
2023-02-17T03:55:03.356Z,4.25
2023-02-17T03:58:04.913Z,3.78
2023-02-17T04:01:08.360Z,4.47
2023-02-17T04:04:10.039Z,4.45
2023-02-17T04:07:11.461Z,4.20
2023-02-17T04:10:12.949Z,4.30
2023-02-17T04:13:14.352Z,4.18
2023-02-17T04:16:15.890Z,3.80
2023-02-17T04:19:18.446Z,4.70
2023-02-17T04:22:20.734Z,4.88
2023-02-17T04:25:22.226Z,4.82
2023-02-17T04:28:23.985Z,4.78
2023-02-17T04:31:27.987Z,6.05
2023-02-17T04:34:29.492Z,5.63
2023-02-17T04:37:30.925Z,5.60
2023-02-17T04:40:32.587Z,5.53
2023-02-17T04:43:34.170Z,5.32
2023-02-17T04:46:35.678Z,5.63
2023-02-17T04:49:37.189Z,5.05
2023-02-17T04:52:38.858Z,5.25
2023-02-17T04:55:41.502Z,4.90
2023-02-17T04:58:43.052Z,5.60
2023-02-17T05:01:44.499Z,5.38
2023-02-17T05:04:46.173Z,5.72
2023-02-17T05:07:48.410Z,5.45
2023-02-17T05:10:53.124Z,4.53
2023-02-17T05:13:54.580Z,4.70
2023-02-17T05:16:56.053Z,4.88
2023-02-17T05:19:57.624Z,4.72
2023-02-17T05:22:59.067Z,5.45
2023-02-17T05:26:00.604Z,5.50
2023-02-17T05:29:02.204Z,5.63
2023-02-17T05:32:03.947Z,5.18
2023-02-17T05:35:05.681Z,5.38
2023-02-17T05:38:07.253Z,5.20
2023-02-17T05:41:08.784Z,4.60
2023-02-17T05:44:10.244Z,5.18
2023-02-17T05:47:11.748Z,4.65
2023-02-17T05:50:13.408Z,5.07
2023-02-17T05:53:14.872Z,5.47
2023-02-17T05:56:16.392Z,5.50
2023-02-17T05:59:18.429Z,5.80
2023-02-17T06:02:21.150Z,5.53
2023-02-17T06:05:23.046Z,6.60
2023-02-17T06:08:24.492Z,6.00
2023-02-17T06:11:25.901Z,6.20
2023-02-17T06:14:27.498Z,6.28
2023-02-17T06:17:29.969Z,7.18
2023-02-17T06:20:31.495Z,6.32
2023-02-17T06:23:33.090Z,6.40
2023-02-17T06:26:34.522Z,5.70
2023-02-17T06:29:36.091Z,5.50
2023-02-17T06:32:37.578Z,5.63
2023-02-17T06:35:39.717Z,5.25
2023-02-17T06:38:41.193Z,5.85
2023-02-17T06:41:42.811Z,5.57
2023-02-17T06:44:44.302Z,5.40
2023-02-17T06:47:45.819Z,5.82
2023-02-17T06:50:49.244Z,4.70
2023-02-17T06:53:50.736Z,4.93
2023-02-17T06:56:52.222Z,4.25
2023-02-17T06:59:53.690Z,5.00
2023-02-17T07:02:55.223Z,4.72
2023-02-17T07:06:00.108Z,4.05
2023-02-17T07:09:02.466Z,4.82
2023-02-17T07:12:04.900Z,4.68
2023-02-17T07:15:08.301Z,4.00
2023-02-17T07:18:12.300Z,3.55
2023-02-17T07:21:13.873Z,4.20
2023-02-17T07:24:15.357Z,3.70
2023-02-17T07:27:16.952Z,4.07
2023-02-17T07:30:18.654Z,3.88
2023-02-17T07:33:20.106Z,3.83
2023-02-17T07:36:21.604Z,4.25
2023-02-17T07:39:23.261Z,4.97
2023-02-17T07:42:27.356Z,4.97
2023-02-17T07:48:30.888Z,5.45
2023-02-17T07:51:32.404Z,5.78
2023-02-17T07:54:33.946Z,5.55
2023-02-17T07:57:35.416Z,5.45
2023-02-17T08:00:36.865Z,4.85
2023-02-17T08:03:38.417Z,4.75
2023-02-17T08:06:40.195Z,6.57
2023-02-17T08:10:00.031Z,5.60
2023-02-17T08:13:19.345Z,5.90
2023-02-17T08:16:20.801Z,5.53
2023-02-17T08:19:22.597Z,4.45
2023-02-17T08:22:24.728Z,4.82
2023-02-17T08:25:26.359Z,4.43
2023-02-17T08:28:27.907Z,4.38
2023-02-17T08:31:33.001Z,3.80
2023-02-17T08:34:35.015Z,4.45
2023-02-17T08:37:36.486Z,3.80
2023-02-17T08:40:38.205Z,3.65
2023-02-17T08:43:40.670Z,3.65
2023-02-17T08:46:43.463Z,4.07
2023-02-17T08:49:45.262Z,3.40
2023-02-17T08:52:47.325Z,3.88
2023-02-17T08:55:49.890Z,3.88
2023-02-17T08:58:51.759Z,3.15
2023-02-17T09:01:53.525Z,3.28
2023-02-17T09:04:55.215Z,3.20
2023-02-17T09:07:56.838Z,3.53
2023-02-17T09:10:59.096Z,3.70
2023-02-17T09:14:01.411Z,4.05
2023-02-17T09:17:04.368Z,3.80
2023-02-17T09:20:16.278Z,4.55
2023-02-17T09:23:24.522Z,3.97
2023-02-17T09:26:26.156Z,4.32
2023-02-17T09:29:27.666Z,3.70
2023-02-17T09:32:29.324Z,4.45
2023-02-17T09:35:31.693Z,3.90
2023-02-17T09:38:33.253Z,4.78
2023-02-17T09:41:47.221Z,3.78
2023-02-17T09:44:55.751Z,4.35
2023-02-17T09:48:02.851Z,3.92
2023-02-17T09:51:53.923Z,4.05
2023-02-17T09:55:04.267Z,2.83
2023-02-17T09:58:17.892Z,3.08
2023-02-17T10:01:23.314Z,3.37
2023-02-17T10:04:35.955Z,2.88
2023-02-17T10:07:47.638Z,2.60
2023-02-17T10:11:01.613Z,3.13
2023-02-17T10:14:09.918Z,2.97
2023-02-17T10:17:32.729Z,2.80
2023-02-17T10:20:39.850Z,2.60
2023-02-17T10:23:41.427Z,2.50
2023-02-17T10:26:54.995Z,2.70
2023-02-17T10:30:26.248Z,2.50
2023-02-17T10:34:03.011Z,2.92
2023-02-17T10:37:14.486Z,2.70
2023-02-17T10:40:20.467Z,2.58
2023-02-17T10:43:26.991Z,2.80
2023-02-17T10:46:31.508Z,4.13
2023-02-17T10:49:39.670Z,3.28
2023-02-17T10:52:41.936Z,3.08
2023-02-17T10:55:54.615Z,3.25
2023-02-17T10:59:24.039Z,3.22
2023-02-17T11:02:36.518Z,3.05
2023-02-17T11:05:38.170Z,2.90
2023-02-17T11:08:48.902Z,2.72
2023-02-17T11:12:00.507Z,2.83
2023-02-17T11:15:04.899Z,3.00
2023-02-17T11:18:18.243Z,3.05
2023-02-17T11:21:20.032Z,2.65
2023-02-17T11:24:22.030Z,4.50
2023-02-17T11:27:25.168Z,3.25
2023-02-17T11:30:28.255Z,2.88
2023-02-17T11:33:40.466Z,3.58
2023-02-17T11:36:45.191Z,2.88
2023-02-17T11:39:49.212Z,3.10
2023-02-17T11:46:14.994Z,3.15
2023-02-17T11:49:56.048Z,2.80
2023-02-17T11:53:18.922Z,3.10
2023-02-17T11:56:28.335Z,3.00
2023-02-17T12:00:14.972Z,3.10
2023-02-17T12:03:58.516Z,2.97
2023-02-17T12:07:25.100Z,3.33
2023-02-17T12:10:49.413Z,3.40
2023-02-17T12:14:31.152Z,3.38
2023-02-17T12:17:50.782Z,3.30
2023-02-17T12:21:06.230Z,2.95
2023-02-17T12:24:26.521Z,2.55
2023-02-17T12:27:37.021Z,3.50
2023-02-17T12:30:58.787Z,3.50
2023-02-17T12:34:39.326Z,2.90
2023-02-17T12:38:16.352Z,2.88
2023-02-17T12:41:41.149Z,3.30
2023-02-17T12:44:45.070Z,3.13
2023-02-17T12:47:57.276Z,3.28
2023-02-17T12:51:27.459Z,3.33
2023-02-17T12:54:47.769Z,2.83
2023-02-17T12:58:02.619Z,2.92
2023-02-17T13:01:10.099Z,3.05
2023-02-17T13:04:16.835Z,3.75
2023-02-17T13:07:40.321Z,3.45
2023-02-17T13:10:41.866Z,3.78
2023-02-17T13:13:43.419Z,3.30
2023-02-17T13:16:46.301Z,3.50
2023-02-17T13:19:47.806Z,3.03
2023-02-17T13:22:49.291Z,2.97
2023-02-17T13:26:06.690Z,3.05
2023-02-17T13:29:25.367Z,2.85
2023-02-17T13:32:30.311Z,2.97
2023-02-17T13:35:36.965Z,3.47
2023-02-17T13:38:38.456Z,2.80
2023-02-17T13:41:48.488Z,3.30
2023-02-17T13:44:51.183Z,3.30
2023-02-17T13:47:55.741Z,2.72
2023-02-17T13:51:09.863Z,3.25
2023-02-17T13:54:12.433Z,3.00
2023-02-17T13:57:28.718Z,3.28
2023-02-17T14:00:31.866Z,2.90
2023-02-17T14:03:42.237Z,3.83
2023-02-17T14:06:43.987Z,3.28
2023-02-17T14:09:53.808Z,3.65
2023-02-17T14:12:56.538Z,3.17
2023-02-17T14:16:00.028Z,3.42
2023-02-17T14:19:17.338Z,3.35
2023-02-17T14:22:35.135Z,3.17
2023-02-17T14:25:38.765Z,3.03
2023-02-17T14:28:40.330Z,2.85
2023-02-17T14:31:44.913Z,3.10
2023-02-17T14:34:46.429Z,3.35
2023-02-17T14:37:48.688Z,3.42
2023-02-17T14:40:50.826Z,3.30
2023-02-17T14:43:52.809Z,3.30
2023-02-17T14:46:54.292Z,2.90
2023-02-17T14:49:55.952Z,3.10
2023-02-17T14:52:57.550Z,2.90
2023-02-17T14:56:21.192Z,2.83
2023-02-17T14:59:22.667Z,3.05
2023-02-17T15:02:24.436Z,3.00
2023-02-17T15:05:26.027Z,3.10
2023-02-17T15:08:32.633Z,3.30
2023-02-17T15:11:36.948Z,2.83
2023-02-17T15:14:38.430Z,3.70
2023-02-17T15:17:39.930Z,2.80
2023-02-17T15:20:43.664Z,2.90
2023-02-17T15:23:45.170Z,2.72
2023-02-17T15:26:47.931Z,3.03
2023-02-17T15:29:49.458Z,3.20
2023-02-17T15:32:51.138Z,2.70
2023-02-17T15:35:54.314Z,3.60
2023-02-17T15:38:55.878Z,3.37
2023-02-17T15:42:03.604Z,3.20
2023-02-17T15:45:05.361Z,3.10
2023-02-17T15:48:24.733Z,5.22
2023-02-17T15:51:26.229Z,3.78
2023-02-17T15:54:27.709Z,4.57
2023-02-17T15:57:30.114Z,3.13
2023-02-17T16:00:34.386Z,2.95
2023-02-17T16:03:35.956Z,3.15
2023-02-17T16:06:37.997Z,3.17
2023-02-17T16:09:39.518Z,2.92
2023-02-17T16:12:51.568Z,3.25
2023-02-17T16:15:57.084Z,2.53
2023-02-17T16:19:02.369Z,2.83
2023-02-17T16:22:03.940Z,2.70
2023-02-17T16:25:05.855Z,2.90
2023-02-17T16:28:14.503Z,2.80
2023-02-17T16:31:16.285Z,2.28
2023-02-17T16:34:35.704Z,2.47
2023-02-17T16:37:37.561Z,3.08
2023-02-17T16:40:47.203Z,3.17
2023-02-17T16:43:48.902Z,3.25
2023-02-17T16:46:54.176Z,3.05
2023-02-17T16:49:55.723Z,2.40
2023-02-17T16:53:00.696Z,3.65
2023-02-17T16:56:13.884Z,3.15
2023-02-17T16:59:18.591Z,2.97
2023-02-17T17:02:21.731Z,2.40
2023-02-17T17:05:24.713Z,3.15
2023-02-17T17:08:26.146Z,3.28
2023-02-17T17:11:29.143Z,2.95
2023-02-17T17:14:30.819Z,3.10
2023-02-17T17:17:47.500Z,3.60
2023-02-17T17:20:49.335Z,3.90
2023-02-17T17:23:50.888Z,4.38
2023-02-17T17:26:52.557Z,4.30
2023-02-17T17:29:54.044Z,6.45
2023-02-17T17:32:55.610Z,3.90
2023-02-17T17:35:57.136Z,4.18
2023-02-17T17:39:00.302Z,2.08
2023-02-17T17:42:01.765Z,2.15
2023-02-17T17:45:03.354Z,2.38
2023-02-17T17:48:05.039Z,1.63
2023-02-17T17:51:06.749Z,1.90
2023-02-17T17:54:08.593Z,1.77
2023-02-17T17:57:10.366Z,1.63
2023-02-17T18:00:15.266Z,2.13
2023-02-17T18:03:16.679Z,1.75
2023-02-17T18:06:25.566Z,1.90
2023-02-17T18:09:32.374Z,1.88
2023-02-17T18:12:34.683Z,2.10
2023-02-17T18:15:36.467Z,2.22
2023-02-17T18:18:38.282Z,2.10
2023-02-17T18:21:39.900Z,2.10
2023-02-17T18:24:41.410Z,1.80
2023-02-17T18:27:45.880Z,2.08
2023-02-17T18:30:47.510Z,2.00
2023-02-17T18:33:49.042Z,1.60
2023-02-17T18:36:51.025Z,1.90
2023-02-17T18:39:52.456Z,2.08
2023-02-17T18:42:53.887Z,2.58
2023-02-17T18:45:55.402Z,2.35
2023-02-17T18:48:57.128Z,2.40
2023-02-17T18:51:58.709Z,2.25
2023-02-17T18:55:00.141Z,2.53
2023-02-17T18:58:01.653Z,2.42
2023-02-17T19:01:03.172Z,2.00
2023-02-17T19:04:05.784Z,1.60
2023-02-17T19:07:07.371Z,1.98
2023-02-17T19:10:09.759Z,2.03
2023-02-17T19:13:11.442Z,1.75
2023-02-17T19:16:16.787Z,2.00
2023-02-17T19:19:18.289Z,1.75
2023-02-17T19:22:20.432Z,1.75
2023-02-17T19:25:22.008Z,1.67
2023-02-17T19:28:24.029Z,1.83
2023-02-17T19:31:25.640Z,1.70
2023-02-17T19:34:27.777Z,1.80
2023-02-17T19:37:29.228Z,1.80
2023-02-17T19:40:30.829Z,1.88
2023-02-17T19:43:32.970Z,2.25
2023-02-17T19:46:34.494Z,1.80
2023-02-17T19:49:36.091Z,1.95
2023-02-17T19:52:37.700Z,2.10
2023-02-17T19:55:39.196Z,2.00
2023-02-17T19:58:41.590Z,3.13
2023-02-17T20:01:43.506Z,2.38
2023-02-17T20:04:45.476Z,2.38
2023-02-17T20:07:46.985Z,2.67
2023-02-17T20:10:48.687Z,3.25
2023-02-17T20:13:50.662Z,2.25
2023-02-17T20:16:53.312Z,1.75
2023-02-17T20:19:54.807Z,1.80
2023-02-17T20:22:56.994Z,2.10
2023-02-17T20:25:59.408Z,2.25
2023-02-17T20:29:01.836Z,2.50
2023-02-17T20:32:03.530Z,2.60
2023-02-17T20:35:05.593Z,2.67
2023-02-17T20:38:07.963Z,3.13
2023-02-17T20:41:14.859Z,3.38
2023-02-17T20:44:17.548Z,2.92
2023-02-17T20:47:19.164Z,3.42
2023-02-17T20:50:21.885Z,3.10
2023-02-17T20:53:24.481Z,3.00
2023-02-17T20:56:35.376Z,3.28
2023-02-17T20:59:36.943Z,3.20
2023-02-17T21:02:39.003Z,2.70
2023-02-17T21:05:40.572Z,2.88
2023-02-17T21:08:42.113Z,3.22
2023-02-17T21:11:44.369Z,3.00
2023-02-17T21:14:46.226Z,3.83
2023-02-17T21:17:48.622Z,2.95
2023-02-17T21:20:50.132Z,3.00
2023-02-17T21:23:51.679Z,2.80
2023-02-17T21:26:53.186Z,2.85
2023-02-17T21:29:54.680Z,3.03
2023-02-17T21:32:56.563Z,2.55
2023-02-17T21:35:58.181Z,3.25
2023-02-17T21:38:59.793Z,3.00
2023-02-17T21:42:01.237Z,3.05
2023-02-17T21:45:02.761Z,3.10
2023-02-17T21:48:05.333Z,2.88
2023-02-17T21:51:09.452Z,2.85
2023-02-17T21:57:13.035Z,3.20
2023-02-17T22:00:15.382Z,2.75
2023-02-17T22:03:16.855Z,2.75
2023-02-17T22:06:24.293Z,2.35
2023-02-17T22:09:25.740Z,2.50
2023-02-17T22:12:27.515Z,2.63
2023-02-17T22:15:29.039Z,2.58
2023-02-17T22:18:30.518Z,2.60
2023-02-17T22:21:32.707Z,2.20
2023-02-17T22:24:34.261Z,2.33
2023-02-17T22:27:35.758Z,2.78
2023-02-17T22:30:37.270Z,2.63
2023-02-17T22:33:38.772Z,2.50
2023-02-17T22:36:40.313Z,2.67
2023-02-17T22:39:41.804Z,2.50
2023-02-17T22:42:43.224Z,2.33
2023-02-17T22:45:44.697Z,2.22
2023-02-17T22:48:47.938Z,1.92
2023-02-17T22:51:49.428Z,2.10
2023-02-17T22:54:50.955Z,2.40
2023-02-17T22:57:52.438Z,2.42
2023-02-17T23:01:06.258Z,2.10
2023-02-17T23:04:08.141Z,2.50
2023-02-17T23:07:09.665Z,2.40
2023-02-17T23:10:11.246Z,2.53
2023-02-17T23:13:12.789Z,2.45
2023-02-17T23:16:18.870Z,2.42
2023-02-17T23:19:22.498Z,1.83
2023-02-17T23:22:23.998Z,2.53
2023-02-17T23:25:25.523Z,2.83
2023-02-17T23:28:27.027Z,4.10
2023-02-17T23:31:28.540Z,2.00
2023-02-17T23:34:30.671Z,2.78
2023-02-17T23:37:32.170Z,2.13
2023-02-17T23:40:36.825Z,1.83
2023-02-17T23:43:38.321Z,1.80
2023-02-17T23:46:41.169Z,1.75
2023-02-17T23:49:42.702Z,1.40
2023-02-17T23:52:44.161Z,1.70
2023-02-17T23:55:45.630Z,1.30
2023-02-17T23:58:47.148Z,2.15
